Bookmark and Share
Track history (hours):
 

Lowlands Sky

Last reported at 2014-Mar-31 14:33 UTC. Time now 2014-Apr-18 18:16 UTC.
Position N 31°17' E 121°44'.
Warning: this ship's position is 18 days out of date.

Length 177 m; draft 6.4 m.

Type: Cargo ship. MMSI: 370830000.

NotesDate/timePositionNaut miles runAvg speedWind from/ knotsBaromVisibWave heightAir tempDewpointWater temp
2014-Mar-31 14:33N 31°17' E 121°44'1110.8
2014-Mar-31 13:34N 31°24' E 121°34'10 9.8
2014-Mar-31 12:33N 31°30' E 121°25'11 9.9
2014-Mar-31 11:26N 31°37' E 121°15'1111.6
2014-Mar-31 10:32N 31°44' E 121°06'1010.4
2014-Mar-31 09:32N 31°49' E 120°55'1212.3
2014-Mar-31 08:33N 31°60' E 120°49'1110.9
2014-Mar-31 07:33N 32°00' E 120°36'9 9.4
2014-Mar-31 06:33N 32°03' E 120°25'1212.1
2014-Mar-31 05:33N 31°56' E 120°14'1111.0
2014-Mar-31 04:33N 31°58' E 120°01'1212.0
2014-Mar-31 03:33N 32°09' E 119°54'12 4.0
2014-Mar-31 00:26N 32°12' E 119°40'0 0.0
2014-Mar-30 21:23N 32°12' E 119°40'0 0.0
2014-Mar-30 20:32N 32°12' E 119°40'0 0.0
2014-Mar-30 19:32N 32°12' E 119°40'0 0.0
2014-Mar-30 18:32N 32°12' E 119°40'0 0.0
2014-Mar-30 17:29N 32°12' E 119°40'0 0.0
2014-Mar-30 16:32N 32°12' E 119°40'0 0.0
2014-Mar-30 15:20N 32°12' E 119°40'0 0.0
2014-Mar-30 14:20N 32°12' E 119°40'0 0.0
2014-Mar-30 12:20N 32°12' E 119°40'  
2014-Mar-27 14:05N 32°16' E 119°42'0 0.1
2014-Mar-27 12:31N 32°16' E 119°42'8 6.8
2014-Mar-27 11:21N 32°16' E 119°51'911.0
2014-Mar-27 10:33N 32°08' E 119°55'1111.1
2014-Mar-27 09:33N 31°58' E 120°01'1010.3
2014-Mar-27 08:34N 31°56' E 120°13'1110.6
2014-Mar-27 07:33N 32°01' E 120°24'9 9.3
2014-Mar-27 06:33N 32°02' E 120°35'1110.7
2014-Mar-27 05:33N 32°01' E 120°47'1211.7
2014-Mar-27 04:33N 31°51' E 120°54'10 9.7
2014-Mar-27 03:30N 31°46' E 121°04'1212.6
2014-Mar-27 02:32N 31°38' E 121°15'1 0.6
2014-Mar-27 00:05N 31°38' E 121°17'0 0.1
2014-Mar-26 23:17N 31°38' E 121°17'0 0.1
2014-Mar-26 20:29N 31°38' E 121°17'0 0.0
2014-Mar-26 19:29N 31°38' E 121°17'0 0.0
2014-Mar-26 17:29N 31°38' E 121°17'0 0.1
2014-Mar-26 16:32N 31°38' E 121°17'0 0.1
2014-Mar-26 15:17N 31°38' E 121°17'2 2.7
2014-Mar-26 14:33N 31°36' E 121°18'1211.8
2014-Mar-26 13:33N 31°28' E 121°28'8 8.3
2014-Mar-26 12:33N 31°23' E 121°36'1010.2
2014-Mar-26 11:33N 31°18' E 121°46'  

Dump ship's entire track history

sailing weather and tide predictions

Lowlands Sky — 3FJW9 — position and weather